Historique des mesures à Cassis (13260), France
Quotidien Résumé Juillet 28, 2021 Unités:  Métrique    US   Métrique/US
Quotidien Hebdomadaire Mensuel Annuel
  Maximum: Minimum: Moyenne:
Température: 20.9 °C 14 °C 16.7 °C
Point de rosée: 11.3 °C 8.2 °C 9.7 °C
Humidité: 71% 50% 64%
Vitesse du vent: 11.5km/h 0km/h 3.4km/h
Rafales: 16.9km/h - -
Vent- - SSE
Pression: 1019.6 hPa 1015.1 hPa -
Précipitations: 0.0 mm    
Historical Graphs
 
 
Mesures pour : Juillet 28, 2021
Heure Temperature Point de rosée Pression Vent Vitesse du vent Rafales Humidité Pluie (par heure)
00:11 14.8 °C 9.6 °C 1019.6 hPa NNW 4.3 km/h 7.2 km/h 71% 0.0 mm
01:11 14.6 °C 9.2 °C 1019.3 hPa NW 3.6 km/h 8.6 km/h 70% 0.0 mm
02:11 14.9 °C 9 °C 1018.7 hPa NNW 4.7 km/h 7.2 km/h 68% 0.0 mm
03:11 14.9 °C 9.3 °C 1018.5 hPa North 2.5 km/h 7.6 km/h 69% 0.0 mm
04:11 14.8 °C 9.2 °C 1018.2 hPa Calm   4 km/h 69% 0.0 mm
05:11 14.2 °C 8.8 °C 1017.8 hPa NW 3.6 km/h 5 km/h 70% 0.0 mm
06:11 14.2 °C 8.8 °C 1017.7 hPa Calm   5 km/h 70% 0.0 mm
07:11 14.3 °C 8.7 °C 1017.6 hPa Calm   4.7 km/h 69% 0.0 mm
08:11 14 °C 8.2 °C 1017.7 hPa Calm   4 km/h 68% 0.0 mm
09:11 15.1 °C 9 °C 1017.9 hPa Calm   6.5 km/h 67% 0.0 mm
10:11 16.5 °C 9.4 °C 1017.9 hPa East 5.8 km/h 8.6 km/h 63% 0.0 mm
11:11 17.7 °C 9.8 °C 1017.5 hPa ESE 4.7 km/h 14.8 km/h 60% 0.0 mm
12:11 18.9 °C 9.9 °C 1017.4 hPa ESE 7.2 km/h 15.1 km/h 56% 0.0 mm
13:11 20.1 °C 11.3 °C 1017.1 hPa ESE 11.5 km/h 16.9 km/h 57% 0.0 mm
14:11 20.9 °C 10.1 °C 1016.6 hPa ESE 10.8 km/h 15.5 km/h 50% 0.0 mm
15:11 20.3 °C 9.6 °C 1015.9 hPa ESE 6.1 km/h 13.3 km/h 50% 0.0 mm
16:11 19.6 °C 10.6 °C 1015.9 hPa Calm   8.3 km/h 56% 0.0 mm
17:11 18.9 °C 10.7 °C 1015.7 hPa Calm   5 km/h 59% 0.0 mm
18:11 18.4 °C 10.2 °C 1015.7 hPa Calm   11.5 km/h 59% 0.0 mm
19:11 17.7 °C 10.1 °C 1015.6 hPa SE 3.6 km/h 7.2 km/h 61% 0.0 mm
20:11 17 °C 9.7 °C 1015.7 hPa ESE 3.6 km/h 5.8 km/h 62% 0.0 mm
21:11 16.6 °C 10 °C 1015.5 hPa Calm   9 km/h 65% 0.0 mm
22:11 16.3 °C 10.2 °C 1015.2 hPa ENE 4 km/h 13.7 km/h 67% 0.0 mm
23:11 16.2 °C 10.6 °C 1015.1 hPa SE 6.5 km/h 11.9 km/h 69% 0.0 mm
Observations météo à CASSIS
WU-History script by Weather Underground - 2 mb